Home > Products > Valid Products > MTR

000
SAUS41 KBOX 300355
MTRMQE
METAR KMQE 300354Z AUTO 20010KT M02/M08 A3005 RMK AO1 SLP194
T10171078





000
SAUS41 KBOX 300255
MTRMQE
METAR KMQE 300254Z AUTO 18009KT M02/M07 A3006 RMK AO1 SLP195
T10171072 58010





000
SAUS41 KBOX 300155
MTRMQE
METAR KMQE 300154Z AUTO 19010KT M01/M08 A3008 RMK AO1 SLP205
T10111083





000
SAUS41 KBOX 300055
MTRMQE
METAR KMQE 300054Z AUTO 21010KT 01/M15 A3009 RMK AO1 SLP206
T00111150





000
SAUS41 KBOX 300055
MTRMQE
METAR KMQE 300054Z AUTO 21010KT 01/M15 A3009 RMK AO1 SLP206
T00111150





000
SAUS41 KBOX 292355
MTRMQE
METAR KMQE 292354Z AUTO 23008KT 02/M15 A3009 RMK AO1 SLP207
T00221150 10039 20022 53005





000
SAUS41 KBOX 292355
MTRMQE
METAR KMQE 292354Z AUTO 23008KT 02/M15 A3009 RMK AO1 SLP207
T00221150 10039 20022 53005





000
SAUS41 KBOX 292255
MTRMQE
METAR KMQE 292254Z AUTO 27007KT 03/M16 A3008 RMK AO1 SLP204
T00281156





000
SAUS41 KBOX 292255
MTRMQE
METAR KMQE 292254Z AUTO 27007KT 03/M16 A3008 RMK AO1 SLP204
T00281156





000
SAUS41 KBOX 292156
MTRMQE
METAR KMQE 292154Z AUTO 26010KT 03/M14 A3007 RMK AO1 SLP200
T00331144





000
SAUS41 KBOX 292055
MTRMQE
METAR KMQE 292054Z AUTO 28005KT 04/M13 A3007 RMK AO1 SLP201
T00391133 56017





000
SAUS41 KBOX 291955
MTRMQE
METAR KMQE 291954Z AUTO 27008G16KT 03/M13 A3008 RMK AO1 SLP204
T00331133





000
SAUS41 KBOX 291955
MTRMQE
METAR KMQE 291954Z AUTO 27008G16KT 03/M13 A3008 RMK AO1 SLP204
T00331133





000
SAUS41 KBOX 291855
MTRMQE
METAR KMQE 291854Z AUTO 30010KT 03/M15 A3010 RMK AO1 SLP212
T00281150





000
SAUS41 KBOX 291855
MTRMQE
METAR KMQE 291854Z AUTO 30010KT 03/M15 A3010 RMK AO1 SLP212
T00281150





000
SAUS41 KBOX 291755
MTRMQE
METAR KMQE 291754Z AUTO VRB03KT 02/M15 A3012 RMK AO1 SLP218
T00221150 10022 21056 58014





000
SAUS41 KBOX 291755
MTRMQE
METAR KMQE 291754Z AUTO VRB03KT 02/M15 A3012 RMK AO1 SLP218
T00221150 10022 21056 58014





000
SAUS41 KBOX 291656
MTRMQE
METAR KMQE 291654Z AUTO 33008KT 01/M15 A3014 RMK AO1 SLP224
T00111150





000
SAUS41 KBOX 291656
MTRMQE
METAR KMQE 291654Z AUTO 33008KT 01/M15 A3014 RMK AO1 SLP224
T00111150





000
SAUS41 KBOX 291556
MTRMQE
METAR KMQE 291554Z AUTO VRB04KT 01/M15 A3015 RMK AO1 SLP228
T00061150





000
SAUS41 KBOX 291455
MTRMQE
METAR KMQE 291454Z AUTO 32006KT M01/M13 A3016 RMK AO1 SLP232
T10061133 51013





000
SAUS41 KBOX 291455
MTRMQE
METAR KMQE 291454Z AUTO 32006KT M01/M13 A3016 RMK AO1 SLP232
T10061133 51013





000
SAUS41 KBOX 291355
MTRMQE
METAR KMQE 291354Z AUTO 33008KT M02/M13 A3016 RMK AO1 SLP234
T10221128





000
SAUS41 KBOX 291355
MTRMQE
METAR KMQE 291354Z AUTO 33008KT M02/M13 A3016 RMK AO1 SLP234
T10221128





000
SAUS41 KBOX 291255
MTRMQE
METAR KMQE 291254Z AUTO 33006KT M04/M12 A3015 RMK AO1 SLP228
T10391122





000
SAUS41 KBOX 291255
MTRMQE
METAR KMQE 291254Z AUTO 33006KT M04/M12 A3015 RMK AO1 SLP228
T10391122





000
SAUS41 KBOX 291155
MTRMQE
METAR KMQE 291154Z AUTO 33009KT M06/M12 A3013 RMK AO1 SLP220 70040
T10561122 11044 21061 53027





000
SAUS41 KBOX 291155
MTRMQE
METAR KMQE 291154Z AUTO 33009KT M06/M12 A3013 RMK AO1 SLP220 70040
T10561122 11044 21061 53027





000
SAUS41 KBOX 291055
MTRMQE
METAR KMQE 291054Z AUTO 32007KT M06/M12 A3010 RMK AO1 SLP210
T10561117





000
SAUS41 KBOX 291055
MTRMQE
METAR KMQE 291054Z AUTO 32007KT M06/M12 A3010 RMK AO1 SLP210
T10561117





000
SAUS41 KBOX 290955
MTRMQE
METAR KMQE 290954Z AUTO 33009KT M06/M12 A3007 RMK AO1 SLP200
T10561117





000
SAUS41 KBOX 290856
MTRMQE
METAR KMQE 290854Z AUTO 33011G17KT M06/M12 A3004 RMK AO1 SLP193
T10561117 53014





000
SAUS41 KBOX 290755
MTRMQE
METAR KMQE 290754Z AUTO 33009KT M06/M12 A3003 RMK AO1 SLP186
T10611117





000
SAUS41 KBOX 290755
MTRMQE
METAR KMQE 290754Z AUTO 33009KT M06/M12 A3003 RMK AO1 SLP186
T10611117





000
SAUS41 KBOX 290655
MTRMQE
METAR KMQE 290654Z AUTO 32012G17KT M06/M11 A3002 RMK AO1 SLP184
T10561111





000
SAUS41 KBOX 290655
MTRMQE
METAR KMQE 290654Z AUTO 32012G17KT M06/M11 A3002 RMK AO1 SLP184
T10561111





000
SAUS41 KBOX 290555
MTRMQE
METAR KMQE 290554Z AUTO 33014G21KT M04/M09 A3000 RMK AO1 SLP179
60001 T10441094 11006 21044 51016





000
SAUS41 KBOX 290555
MTRMQE
METAR KMQE 290554Z AUTO 33014G21KT M04/M09 A3000 RMK AO1 SLP179
60001 T10441094 11006 21044 51016





000
SAUS41 KBOX 290455
MTRMQE
METAR KMQE 290454Z AUTO 32011G20KT M04/M07 A2999 RMK AO1 SLP175
T10391067 400221039





000
SAUS41 KBOX 290455
MTRMQE
METAR KMQE 290454Z AUTO 32011G20KT M04/M07 A2999 RMK AO1 SLP175
T10391067 400221039





000
SAUS41 KBOX 290355
MTRMQE
METAR KMQE 290354Z AUTO 33010G17KT M03/M06 A2998 RMK AO1 SLP169
T10281056





000
SAUS41 KBOX 290255
MTRMQE
METAR KMQE 290254Z AUTO 32010KT M02/M03 A2996 RMK AO1 SLP161 60001
T10171028 51027





000
SAUS41 KBOX 290155
MTRMQE
METAR KMQE 290154Z AUTO 31009KT M02/M02 A2993 RMK AO1 SLP154 P0001
T10171022





000
SAUS41 KBOX 290155
MTRMQE
METAR KMQE 290154Z AUTO 31009KT M02/M02 A2993 RMK AO1 SLP154 P0001
T10171022





000
SAUS41 KBOX 290055
MTRMQE
METAR KMQE 290054Z AUTO 33008KT M01/M02 A2991 RMK AO1 SLP146
T10111017





000
SAUS41 KBOX 290055
MTRMQE
METAR KMQE 290054Z AUTO 33008KT M01/M02 A2991 RMK AO1 SLP146
T10111017





000
SAUS41 KBOX 282355
MTRMQE
METAR KMQE 282354Z AUTO 32005KT M01/M01 A2987 RMK AO1 SLP133 60014
T10111011 11006 21011 51037





000
SAUS41 KBOX 282355
MTRMQE
METAR KMQE 282354Z AUTO 32005KT M01/M01 A2987 RMK AO1 SLP133 60014
T10111011 11006 21011 51037





000
SAUS41 KBOX 282255
MTRMQE
METAR KMQE 282254Z AUTO 36004KT M01/M01 A2984 RMK AO1 SLP121 P0002
T10111011





000
SAUS41 KBOX 282255
MTRMQE
METAR KMQE 282254Z AUTO 36004KT M01/M01 A2984 RMK AO1 SLP121 P0002
T10111011





000
SAUS41 KBOX 282155
MTRMQE
METAR KMQE 282154Z AUTO 04008KT M01/M01 A2980 RMK AO1 SLP106 P0002
T10061011





000
SAUS41 KBOX 282055
MTRMQE
METAR KMQE 282054Z AUTO 01006KT M01/M01 A2976 RMK AO1 SLP094 P0003
60010 T10061011 53016





000
SAUS41 KBOX 281955
MTRMQE
METAR KMQE 281954Z AUTO 36010G16KT M01/M01 A2973 RMK AO1 SLP085
P0003 T10111011





000
SAUS41 KBOX 281855
MTRMQE
METAR KMQE 281854Z AUTO 01011G16KT M01/M02 A2972 RMK AO1 SLP079
P0004 T10111017





000
SAUS41 KBOX 281855
MTRMQE
METAR KMQE 281854Z AUTO 01011G16KT M01/M02 A2972 RMK AO1 SLP079
P0004 T10111017





000
SAUS41 KBOX 281756
MTRMQE
METAR KMQE 281754Z AUTO 35012G18KT 320V030 M01/M01 A2971 RMK AO1
SLP077 P0004 60025 T10111011 10000 21011 58001





000
SAUS41 KBOX 281756
MTRMQE
METAR KMQE 281754Z AUTO 35012G18KT 320V030 M01/M01 A2971 RMK AO1
SLP077 P0004 60025 T10111011 10000 21011 58001





000
SAUS41 KBOX 281655
MTRMQE
METAR KMQE 281654Z AUTO 02011G15KT M01/M01 A2971 RMK AO1 SLP078
P0004 T10111011





000
SAUS41 KBOX 281655
MTRMQE
METAR KMQE 281654Z AUTO 02011G15KT M01/M01 A2971 RMK AO1 SLP078
P0004 T10111011





000
SAUS41 KBOX 281555
MTRMQE
METAR KMQE 281554Z AUTO 02013G24KT M01/M02 A2972 RMK AO1 SLP080
P0006 T10111017





000
SAUS41 KBOX 281455
MTRMQE
METAR KMQE 281454Z AUTO 36013G18KT M01/M01 A2971 RMK AO1 SLP078
P0004 60011 T10061011 53006





000
SAUS41 KBOX 281455
MTRMQE
METAR KMQE 281454Z AUTO 36013G18KT M01/M01 A2971 RMK AO1 SLP078
P0004 60011 T10061011 53006





000
SAUS41 KBOX 281355
MTRMQE
METAR KMQE 281354Z AUTO 36011G21KT M01/M01 A2971 RMK AO1 SLP076
P0005 T10061006





000
SAUS41 KBOX 281355
MTRMQE
METAR KMQE 281354Z AUTO 36011G21KT M01/M01 A2971 RMK AO1 SLP076
P0005 T10061006





000
SAUS41 KBOX 281255
MTRMQE
METAR KMQE 281254Z AUTO 01010G18KT M01/M01 A2970 RMK AO1 SLP073
P0002 T10061006





000
SAUS41 KBOX 281255
MTRMQE
METAR KMQE 281254Z AUTO 01010G18KT M01/M01 A2970 RMK AO1 SLP073
P0002 T10061006





000
SAUS41 KBOX 281155
MTRMQE
METAR KMQE 281154Z AUTO 03013G19KT 00/M01 A2970 RMK AO1 SLP072 P0002
60003 70005 T00001006 10017 20000 53007





000
SAUS41 KBOX 281155
MTRMQE
METAR KMQE 281154Z AUTO 03013G19KT 00/M01 A2970 RMK AO1 SLP072 P0002
60003 70005 T00001006 10017 20000 53007





000
SAUS41 KBOX 281055
MTRMQE
METAR KMQE 281054Z AUTO 02010G19KT 01/M01 A2968 RMK AO1 SLP066 P0001
T00061006





000
SAUS41 KBOX 281055
MTRMQE
METAR KMQE 281054Z AUTO 02010G19KT 01/M01 A2968 RMK AO1 SLP066 P0001
T00061006





000
SAUS41 KBOX 280955
MTRMQE
METAR KMQE 280954Z AUTO 03009G18KT 01/M01 A2967 RMK AO1 SLP063
T00111006





000
SAUS41 KBOX 280855
MTRMQE
METAR KMQE 280854Z AUTO 03010G16KT 02/00 A2968 RMK AO1 SLP064
T00170000 56012





000
SAUS41 KBOX 280755
MTRMQE
METAR KMQE 280754Z AUTO 01010KT 01/00 A2968 RMK AO1 SLP066 T00110000





000
SAUS41 KBOX 280755
MTRMQE
METAR KMQE 280754Z AUTO 01010KT 01/00 A2968 RMK AO1 SLP066 T00110000





000
SAUS41 KBOX 280655
MTRMQE
METAR KMQE 280654Z AUTO 35010KT 02/00 A2969 RMK AO1 SLP070 T00170000





000
SAUS41 KBOX 280555
MTRMQE
METAR KMQE 280554Z AUTO 35010KT 02/01 A2971 RMK AO1 SLP076 T00170011
10033 20017 58000





000
SAUS41 KBOX 280555
MTRMQE
METAR KMQE 280554Z AUTO 35010KT 02/01 A2971 RMK AO1 SLP076 T00170011
10033 20017 58000





000
SAUS41 KBOX 280455
MTRMQE
METAR KMQE 280454Z AUTO 32007KT 02/02 A2972 RMK AO1 SLP080 T00220017
400500022





000
SAUS41 KBOX 280455
MTRMQE
METAR KMQE 280454Z AUTO 32007KT 02/02 A2972 RMK AO1 SLP080 T00220017
400500022





000
SAUS41 KBOX 280355
MTRMQE
METAR KMQE 280354Z AUTO 29005KT 02/02 A2972 RMK AO1 SLP081 T00220022





000
SAUS41 KBOX 280255
MTRMQE
METAR KMQE 280254Z AUTO 28003KT 03/02 A2971 RMK AO1 SLP076 T00280022
50001





000
SAUS41 KBOX 280155
MTRMQE
METAR KMQE 280154Z AUTO 24003KT 03/02 A2973 RMK AO1 SLP082 T00280022





000
SAUS41 KBOX 280055
MTRMQE
METAR KMQE 280054Z AUTO 27003KT 03/02 A2971 RMK AO1 SLP077 T00280022





000
SAUS41 KBOX 272355
MTRMQE
METAR KMQE 272354Z AUTO 29004KT 03/02 A2971 RMK AO1 SLP075 T00280022
10033 20028 53006





000
SAUS41 KBOX 272355
MTRMQE
METAR KMQE 272354Z AUTO 29004KT 03/02 A2971 RMK AO1 SLP075 T00280022
10033 20028 53006





000
SAUS41 KBOX 272255
MTRMQE
METAR KMQE 272254Z AUTO 00000KT 03/02 A2970 RMK AO1 SLP074 T00330022





000
SAUS41 KBOX 272255
MTRMQE
METAR KMQE 272254Z AUTO 00000KT 03/02 A2970 RMK AO1 SLP074 T00330022





000
SAUS41 KBOX 272055
MTRMQE
METAR KMQE 272054Z AUTO 00000KT 03/02 A2969 RMK AO1 SLP069 T00330022
53008





000
SAUS41 KBOX 271955
MTRMQE
METAR KMQE 271954Z AUTO 00000KT 03/02 A2967 RMK AO1 SLP061 T00280022





000
SAUS41 KBOX 271955
MTRMQE
METAR KMQE 271954Z AUTO 00000KT 03/02 A2967 RMK AO1 SLP061 T00280022





000
SAUS41 KBOX 271855
MTRMQE
METAR KMQE 271854Z AUTO 33003KT 03/03 A2966 RMK AO1 SLP060 T00280028





000
SAUS41 KBOX 271855
MTRMQE
METAR KMQE 271854Z AUTO 33003KT 03/03 A2966 RMK AO1 SLP060 T00280028





000
SAUS41 KBOX 271755
MTRMQE
METAR KMQE 271754Z AUTO 35003KT 03/03 A2967 RMK AO1 SLP061 60002
T00280028 10033 20022 56012





000
SAUS41 KBOX 271755
MTRMQE
METAR KMQE 271754Z AUTO 35003KT 03/03 A2967 RMK AO1 SLP061 60002
T00280028 10033 20022 56012





000
SAUS41 KBOX 271655
MTRMQE
METAR KMQE 271654Z AUTO 35004KT 03/02 A2967 RMK AO1 SLP061 T00280022





000
SAUS41 KBOX 271555
MTRMQE
METAR KMQE 271554Z AUTO VRB05KT 03/03 A2968 RMK AO1 SLP067 T00280028





000
SAUS41 KBOX 271455
MTRMQE
METAR KMQE 271454Z AUTO 03005KT 03/03 A2970 RMK AO1 SLP072 60002
T00280028 56004





000
SAUS41 KBOX 271355
MTRMQE
METAR KMQE 271354Z AUTO 35006KT 02/02 A2970 RMK AO1 SLP072 P0001
T00220022





000
SAUS41 KBOX 271255
MTRMQE
METAR KMQE 271254Z AUTO 34008KT 02/02 A2969 RMK AO1 SLP068 P0001
T00220022





000
SAUS41 KBOX 271155
MTRMQE
METAR KMQE 271154Z AUTO 34008KT 02/02 A2971 RMK AO1 SLP075 P0003
60020 70075 T00220022 10050 20022 53024





000
SAUS41 KBOX 271055
MTRMQE
METAR KMQE 271054Z AUTO 33008KT 03/03 A2969 RMK AO1 SLP065 P0004
T00280028





000
SAUS41 KBOX 271055
MTRMQE
METAR KMQE 271054Z AUTO 33008KT 03/03 A2969 RMK AO1 SLP065 P0004
T00280028





000
SAUS41 KBOX 270955
MTRMQE
METAR KMQE 270954Z AUTO 36008KT 03/03 A2964 RMK AO1 SLP049 P0006
T00330033





000
SAUS41 KBOX 270855
MTRMQE
METAR KMQE 270854Z AUTO 36008KT 03/03 A2964 RMK AO1 SLP050 P0003
60007 T00330033 53012





000
SAUS41 KBOX 270755
MTRMQE
METAR KMQE 270754Z AUTO 02011G18KT 04/04 A2962 RMK AO1 SLP044 P0003
T00390039





000
SAUS41 KBOX 270655
MTRMQE
METAR KMQE 270654Z AUTO 03007G16KT 04/04 A2962 RMK AO1 SLP043 P0001
T00390039





000
SAUS41 KBOX 270655
MTRMQE
METAR KMQE 270654Z AUTO 03007G16KT 04/04 A2962 RMK AO1 SLP043 P0001
T00390039





000
SAUS41 KBOX 270555
MTRMQE
METAR KMQE 270554Z AUTO 05011G16KT 04/04 A2960 RMK AO1 PRESFR SLP038
60013 T00440044 10117 20044 58009





000
SAUS41 KBOX 270555
MTRMQE
METAR KMQE 270554Z AUTO 05011G16KT 04/04 A2960 RMK AO1 PRESFR SLP038
60013 T00440044 10117 20044 58009





000
SAUS41 KBOX 270455
MTRMQE
METAR KMQE 270454Z AUTO 36005KT 04/04 A2962 RMK AO1 SLP044 T00440044
401170022





000
SAUS41 KBOX 270455
MTRMQE
METAR KMQE 270454Z AUTO 36005KT 04/04 A2962 RMK AO1 SLP044 T00440044
401170022





    US Dept of Commerce
    National Oceanic and Atmospheric Administration
    National Weather Service
    1325 East West Highway
    Silver Spring, MD 20910
    Page Author: NWS Internet Services Team
Disclaimer
Information Quality
Credits
Glossary
Privacy Policy
Freedom of Information Act (FOIA)
About Us
Career Opportunities